Time;durP1;ratioP1;P1;durP2;ratioP2;P2;SDS_P1;SDS_P2;PMS_P1;PMS_P2;Temp;Humidity;BMP_temperature;BMP_pressure;BME280_temperature;BME280_humidity;BME280_pressure;Samples;Min_cycle;Max_cycle;Signal;HPM_P1;HPM_P2
2021/03/25 00:00:44;;;;;;;6.50;5.90;;;3.00;87.50;;;;;;6272858;28;20072;-77
2021/03/25 00:03:48;;;;;;;6.50;5.23;;;3.00;88.00;;;;;;6276747;28;20053;-78
2021/03/25 00:06:52;;;;;;;8.47;5.17;;;2.90;88.20;;;;;;6277836;28;20057;-78
2021/03/25 00:09:53;;;;;;;8.97;5.17;;;2.90;88.60;;;;;;6277298;28;20073;-78
2021/03/25 00:12:54;;;;;;;7.90;5.03;;;2.90;88.80;;;;;;6276543;28;20255;-78
2021/03/25 00:15:57;;;;;;;6.60;5.33;;;2.80;88.90;;;;;;6275773;28;20090;-77
2021/03/25 00:18:58;;;;;;;11.33;5.37;;;2.80;89.10;;;;;;6272640;28;20086;-77
2021/03/25 00:21:59;;;;;;;6.10;5.43;;;2.80;88.90;;;;;;6274672;28;20053;-77
2021/03/25 00:25:01;;;;;;;7.80;6.13;;;2.70;89.10;;;;;;6272486;28;20120;-77
2021/03/25 00:28:04;;;;;;;5.90;4.33;;;2.70;89.30;;;;;;6272783;28;20136;-77
2021/03/25 00:31:06;;;;;;;7.97;5.70;;;2.60;89.60;;;;;;6273054;28;20187;-77
2021/03/25 00:34:07;;;;;;;8.00;6.03;;;2.60;90.00;;;;;;6274563;28;20040;-77
2021/03/25 00:37:09;;;;;;;8.07;5.97;;;2.60;90.10;;;;;;6273952;28;20056;-78
2021/03/25 00:40:11;;;;;;;6.63;5.93;;;2.50;90.30;;;;;;6273726;28;20091;-77
2021/03/25 00:43:13;;;;;;;6.40;5.13;;;2.50;90.40;;;;;;6274614;28;20102;-78
2021/03/25 00:46:16;;;;;;;6.70;4.57;;;2.50;90.50;;;;;;6276131;28;20073;-77
2021/03/25 00:49:17;;;;;;;5.93;4.77;;;2.50;90.60;;;;;;6273143;28;20426;-77
2021/03/25 00:52:19;;;;;;;7.73;4.93;;;2.40;90.70;;;;;;6272885;28;20075;-77
2021/03/25 00:55:21;;;;;;;7.87;5.23;;;2.40;90.90;;;;;;6278265;28;20044;-78
2021/03/25 00:58:22;;;;;;;8.00;5.20;;;2.30;90.90;;;;;;6282265;28;20402;-78
2021/03/25 01:01:25;;;;;;;7.30;4.53;;;2.20;90.90;;;;;;6280407;28;20045;-78
2021/03/25 01:04:27;;;;;;;7.67;4.90;;;2.20;91.30;;;;;;6284443;28;20049;-78
2021/03/25 01:07:30;;;;;;;8.07;6.13;;;2.20;91.60;;;;;;6282043;28;20125;-77
2021/03/25 01:10:34;;;;;;;10.47;6.60;;;2.20;91.40;;;;;;6271194;28;20140;-78
2021/03/25 01:13:38;;;;;;;7.83;4.57;;;2.10;91.40;;;;;;6255869;28;20072;-78
2021/03/25 01:16:43;;;;;;;6.00;4.90;;;2.00;91.60;;;;;;6256323;28;20523;-78
2021/03/25 01:19:44;;;;;;;7.40;4.83;;;2.00;91.80;;;;;;6256302;28;20512;-78
2021/03/25 01:22:46;;;;;;;8.93;5.70;;;2.00;91.90;;;;;;6255662;28;20134;-77
2021/03/25 01:25:47;;;;;;;9.47;5.33;;;2.00;92.00;;;;;;6253023;28;20109;-77
2021/03/25 01:28:49;;;;;;;5.70;5.13;;;2.00;92.10;;;;;;6257898;28;20077;-77
2021/03/25 01:31:51;;;;;;;9.57;6.00;;;2.00;92.00;;;;;;6256174;28;20050;-78
2021/03/25 01:34:52;;;;;;;8.50;5.13;;;2.00;92.10;;;;;;6256673;28;20132;-78
2021/03/25 01:37:54;;;;;;;6.33;4.77;;;1.90;92.10;;;;;;6255788;28;20091;-77
2021/03/25 01:40:57;;;;;;;5.33;4.83;;;1.90;92.20;;;;;;6255570;28;20046;-78
2021/03/25 01:43:59;;;;;;;6.97;6.07;;;2.00;92.50;;;;;;6253794;28;20150;-77
2021/03/25 01:47:01;;;;;;;6.53;5.10;;;2.00;92.50;;;;;;6252017;28;20054;-77
2021/03/25 01:50:03;;;;;;;7.63;5.20;;;2.00;92.20;;;;;;6251587;28;20073;-77
2021/03/25 01:53:37;;;;;;;5.77;4.60;;;2.00;92.20;;;;;;6255368;28;20073;-78
2021/03/25 01:57:21;;;;;;;8.60;5.07;;;2.00;92.30;;;;;;6253474;28;20089;-77
2021/03/25 02:00:28;;;;;;;5.40;4.63;;;1.90;92.30;;;;;;6215164;28;20076;-78
2021/03/25 02:03:47;;;;;;;7.67;5.03;;;1.90;92.30;;;;;;6251253;28;20061;-78
2021/03/25 02:06:57;;;;;;;8.67;6.23;;;1.80;92.40;;;;;;6253569;28;20092;-78
2021/03/25 02:10:06;;;;;;;7.20;6.03;;;1.90;92.70;;;;;;6253241;28;20071;-78
2021/03/25 02:13:15;;;;;;;5.90;4.33;;;1.90;92.80;;;;;;6253655;28;20096;-78
2021/03/25 02:16:22;;;;;;;6.83;5.13;;;1.80;92.80;;;;;;6254432;28;20059;-77
2021/03/25 02:19:37;;;;;;;4.93;4.35;;;1.80;92.90;;;;;;6254417;28;20118;-78
2021/03/25 02:23:01;;;;;;;8.63;4.67;;;1.80;93.10;;;;;;6256553;28;20060;-78
2021/03/25 02:26:07;;;;;;;7.33;4.40;;;1.70;93.10;;;;;;6256834;28;20107;-78
2021/03/25 02:29:19;;;;;;;7.07;5.07;;;1.50;93.30;;;;;;6255846;28;20059;-78
2021/03/25 02:32:26;;;;;;;5.70;4.70;;;1.50;93.60;;;;;;6256884;28;20138;-78
2021/03/25 02:35:29;;;;;;;11.33;5.90;;;1.40;93.90;;;;;;6256727;28;20049;-78
2021/03/25 02:38:36;;;;;;;9.47;6.37;;;1.30;94.10;;;;;;6258703;28;20084;-77
2021/03/25 02:41:42;;;;;;;9.73;6.47;;;1.40;94.20;;;;;;6255920;28;20105;-78
2021/03/25 02:44:49;;;;;;;11.43;6.67;;;1.40;94.20;;;;;;6252839;28;20065;-78
2021/03/25 02:47:55;;;;;;;8.13;5.23;;;1.40;94.40;;;;;;6251711;28;20574;-77
2021/03/25 02:51:00;;;;;;;5.77;5.00;;;1.40;94.40;;;;;;6250959;28;20140;-77
2021/03/25 02:54:02;;;;;;;8.57;5.77;;;1.40;94.50;;;;;;6251019;28;20053;-79
2021/03/25 02:57:10;;;;;;;9.80;5.00;;;1.50;94.50;;;;;;6256648;28;20627;-78
2021/03/25 03:00:15;;;;;;;6.82;5.20;;;1.50;94.50;;;;;;6256742;28;20045;-78
2021/03/25 03:03:21;;;;;;;6.60;5.40;;;1.50;94.40;;;;;;6253348;28;20041;-77
2021/03/25 03:06:30;;;;;;;9.17;6.63;;;1.50;94.50;;;;;;6250363;28;20132;-77
2021/03/25 03:09:39;;;;;;;8.50;5.37;;;1.40;94.50;;;;;;6252901;28;20519;-78
2021/03/25 03:12:45;;;;;;;7.70;5.13;;;1.40;94.60;;;;;;6253609;28;20491;-78
2021/03/25 03:15:49;;;;;;;7.33;5.97;;;1.40;94.80;;;;;;6252828;28;20073;-78
2021/03/25 03:18:56;;;;;;;9.93;5.00;;;1.40;94.70;;;;;;6252802;28;20057;-78
2021/03/25 03:22:01;;;;;;;6.22;5.03;;;1.40;94.80;;;;;;6252713;28;20060;-78
2021/03/25 03:25:07;;;;;;;10.63;6.40;;;1.40;94.70;;;;;;6255160;28;20076;-78
2021/03/25 03:28:16;;;;;;;7.73;5.23;;;1.40;94.50;;;;;;6255682;28;20128;-78
2021/03/25 03:31:23;;;;;;;8.03;4.70;;;1.40;94.60;;;;;;6256722;28;20056;-78
2021/03/25 03:34:32;;;;;;;7.15;4.70;;;1.30;94.90;;;;;;6258544;28;20136;-78
2021/03/25 03:37:38;;;;;;;12.63;6.30;;;1.40;95.10;;;;;;6257709;28;20049;-78
2021/03/25 03:40:42;;;;;;;6.50;5.20;;;1.30;95.00;;;;;;6258489;28;20119;-78
2021/03/25 03:43:45;;;;;;;9.90;6.40;;;1.30;95.10;;;;;;6258559;28;20476;-78
2021/03/25 03:46:47;;;;;;;6.83;5.40;;;1.30;95.10;;;;;;6258510;28;20602;-79
2021/03/25 03:49:53;;;;;;;8.73;5.97;;;1.30;95.20;;;;;;6257908;28;20053;-78
2021/03/25 03:52:55;;;;;;;10.00;6.57;;;1.30;95.30;;;;;;6257645;28;20050;-78
2021/03/25 03:56:11;;;;;;;8.67;6.33;;;1.20;95.10;;;;;;6255662;28;20049;-78
2021/03/25 03:59:18;;;;;;;9.80;7.17;;;1.10;95.30;;;;;;6255156;28;20053;-78
2021/03/25 04:02:28;;;;;;;8.10;6.17;;;1.10;95.50;;;;;;6256303;28;20488;-79
2021/03/25 04:05:33;;;;;;;7.37;5.53;;;1.10;95.50;;;;;;6257220;28;20053;-79
2021/03/25 04:08:40;;;;;;;7.07;5.83;;;1.10;95.60;;;;;;6256142;28;20072;-79
2021/03/25 04:11:48;;;;;;;7.77;5.83;;;1.10;95.60;;;;;;6256906;28;20132;-79
2021/03/25 04:14:53;;;;;;;4.50;3.85;;;1.00;95.70;;;;;;6257680;28;20336;-79
2021/03/25 04:18:00;;;;;;;5.97;5.37;;;1.10;95.70;;;;;;6256772;28;20072;-79
2021/03/25 04:21:16;;;;;;;6.13;4.33;;;1.10;95.80;;;;;;6255103;28;20053;-79
2021/03/25 04:24:22;;;;;;;7.10;5.43;;;1.10;95.70;;;;;;6255441;28;20427;-80
2021/03/25 04:27:28;;;;;;;5.60;4.57;;;1.00;95.70;;;;;;6256048;28;20072;-79
2021/03/25 04:30:34;;;;;;;5.90;4.90;;;1.00;95.80;;;;;;6257340;28;20045;-79
2021/03/25 04:33:37;;;;;;;10.10;6.03;;;1.10;95.80;;;;;;6255526;28;20041;-78
2021/03/25 04:36:43;;;;;;;5.47;4.83;;;1.00;95.40;;;;;;6256763;28;20042;-79
2021/03/25 04:39:47;;;;;;;6.37;4.73;;;0.80;95.80;;;;;;6260638;28;20045;-79
2021/03/25 04:42:49;;;;;;;9.37;4.80;;;0.80;96.40;;;;;;6261594;28;20095;-79
2021/03/25 04:45:57;;;;;;;12.33;6.43;;;0.80;96.20;;;;;;6260533;28;20120;-78
2021/03/25 04:49:04;;;;;;;11.65;5.45;;;0.80;96.20;;;;;;6259691;28;20072;-78
2021/03/25 04:52:13;;;;;;;6.33;4.97;;;0.80;96.40;;;;;;6256363;28;20052;-78
2021/03/25 04:55:20;;;;;;;8.87;5.03;;;0.80;96.50;;;;;;6255826;28;20124;-78
2021/03/25 04:58:29;;;;;;;8.63;5.60;;;0.90;96.70;;;;;;6258919;28;20377;-78
2021/03/25 05:01:32;;;;;;;9.00;6.00;;;0.90;96.40;;;;;;6257753;28;20362;-78
2021/03/25 05:04:36;;;;;;;6.30;5.57;;;0.90;96.50;;;;;;6258914;28;20041;-78
2021/03/25 05:07:40;;;;;;;5.80;4.83;;;0.90;96.50;;;;;;6257132;28;20065;-78
2021/03/25 05:10:45;;;;;;;6.43;4.80;;;1.00;96.50;;;;;;6259354;28;20113;-78
2021/03/25 05:13:47;;;;;;;10.60;5.20;;;1.00;96.50;;;;;;6257116;28;20071;-78
2021/03/25 05:16:58;;;;;;;6.97;4.77;;;1.00;96.30;;;;;;6259842;28;20061;-79
2021/03/25 05:20:10;;;;;;;8.67;6.10;;;0.90;96.20;;;;;;6257700;28;20141;-78
2021/03/25 05:23:23;;;;;;;10.23;6.97;;;0.90;96.30;;;;;;6256821;28;20099;-78
2021/03/25 05:26:30;;;;;;;7.57;5.63;;;0.90;96.50;;;;;;6258455;28;20452;-78
2021/03/25 05:29:32;;;;;;;7.73;5.83;;;1.00;96.40;;;;;;6258331;28;20614;-78
2021/03/25 05:32:38;;;;;;;9.27;6.63;;;1.00;96.40;;;;;;6266291;28;20033;-78
2021/03/25 05:35:44;;;;;;;8.30;5.63;;;1.00;96.40;;;;;;6276034;28;20049;-78
2021/03/25 05:38:47;;;;;;;7.87;5.30;;;1.00;96.50;;;;;;6261791;28;20491;-78
2021/03/25 05:42:04;;;;;;;17.50;8.27;;;1.40;99.20;;;;;;6258409;28;20421;-77
2021/03/25 05:45:32;;;;;;;8.93;5.07;;;1.20;96.40;;;;;;6258071;28;20515;-78
2021/03/25 05:48:58;;;;;;;6.33;5.07;;;1.30;96.30;;;;;;6256434;28;20526;-78
2021/03/25 05:52:20;;;;;;;9.23;5.60;;;1.60;99.20;;;;;;6257483;28;20284;-78
2021/03/25 05:55:52;;;;;;;8.17;6.07;;;1.50;95.90;;;;;;6256885;28;20080;-78
2021/03/25 05:58:57;;;;;;;7.00;5.57;;;1.60;96.00;;;;;;6260356;28;20049;-78
2021/03/25 06:02:03;;;;;;;10.17;7.40;;;1.70;95.70;;;;;;6259953;28;20057;-79
2021/03/25 06:05:09;;;;;;;9.87;5.67;;;1.90;95.40;;;;;;6257022;28;20045;-78
2021/03/25 06:08:33;;;;;;;9.37;5.57;;;2.00;95.40;;;;;;6257169;28;20480;-78
2021/03/25 06:11:49;;;;;;;11.03;7.10;;;2.10;95.10;;;;;;6256479;28;20081;-78
2021/03/25 06:14:59;;;;;;;7.83;5.90;;;2.20;95.00;;;;;;6264499;28;20025;-77
2021/03/25 06:18:16;;;;;;;9.67;6.20;;;2.40;94.70;;;;;;6276773;28;20411;-77
2021/03/25 06:21:28;;;;;;;12.17;5.30;;;2.60;94.60;;;;;;6274372;28;20037;-77
2021/03/25 06:25:03;;;;;;;8.40;5.07;;;2.80;94.50;;;;;;6275138;28;20045;-78
2021/03/25 06:28:24;;;;;;;7.77;5.70;;;3.00;94.30;;;;;;6258936;28;20053;-78
2021/03/25 06:31:37;;;;;;;10.40;5.53;;;3.10;93.90;;;;;;6265847;28;20046;-79
2021/03/25 06:34:45;;;;;;;8.63;4.80;;;3.10;93.80;;;;;;6261514;28;20073;-79
2021/03/25 06:37:55;;;;;;;7.17;4.73;;;3.30;93.80;;;;;;6259913;28;20072;-77
2021/03/25 06:41:02;;;;;;;16.67;5.37;;;3.50;93.80;;;;;;6257510;28;20565;-78
2021/03/25 06:44:11;;;;;;;6.43;4.87;;;3.80;93.40;;;;;;6260122;28;20073;-78
2021/03/25 06:47:25;;;;;;;8.10;5.40;;;4.00;93.00;;;;;;6284156;28;20128;-78
2021/03/25 06:50:35;;;;;;;6.28;4.95;;;4.20;92.90;;;;;;6286168;28;20092;-78
2021/03/25 06:53:42;;;;;;;9.07;6.72;;;4.40;92.60;;;;;;6291584;28;20040;-78
2021/03/25 06:56:46;;;;;;;7.25;5.78;;;4.70;92.30;;;;;;6286572;28;20392;-79
2021/03/25 06:59:49;;;;;;;13.30;5.00;;;5.00;92.00;;;;;;6281328;28;20091;-79
2021/03/25 07:02:52;;;;;;;12.38;6.40;;;5.20;91.60;;;;;;6281819;28;20083;-79
2021/03/25 07:05:55;;;;;;;9.27;6.03;;;5.50;91.20;;;;;;6273620;28;20060;-79
2021/03/25 07:08:57;;;;;;;6.57;5.28;;;5.80;90.80;;;;;;6281694;28;20044;-79
2021/03/25 07:11:59;;;;;;;10.90;4.85;;;6.00;90.20;;;;;;6282012;28;20049;-79
2021/03/25 07:15:02;;;;;;;6.18;4.53;;;6.40;89.90;;;;;;6281374;28;20084;-79
2021/03/25 07:18:05;;;;;;;6.25;5.05;;;6.70;87.50;;;;;;6283467;28;20044;-79
2021/03/25 07:21:21;;;;;;;11.02;4.90;;;7.00;86.30;;;;;;6290042;28;20052;-79
2021/03/25 07:24:28;;;;;;;11.85;5.57;;;7.30;84.20;;;;;;6292102;28;20537;-79
2021/03/25 07:27:34;;;;;;;16.98;5.72;;;7.60;82.70;;;;;;6291087;28;20041;-79
2021/03/25 07:30:44;;;;;;;8.15;5.10;;;7.90;80.90;;;;;;6292513;28;20045;-79
2021/03/25 07:33:46;;;;;;;6.80;5.30;;;8.10;79.90;;;;;;6293027;28;20055;-78
2021/03/25 07:36:51;;;;;;;9.50;5.88;;;8.40;77.70;;;;;;6290063;28;20049;-78
2021/03/25 07:40:00;;;;;;;9.60;5.72;;;8.60;77.20;;;;;;6289458;28;20070;-78
2021/03/25 07:43:17;;;;;;;7.53;5.57;;;8.90;75.40;;;;;;6287574;28;20075;-79
2021/03/25 07:46:23;;;;;;;6.32;5.72;;;9.30;74.20;;;;;;6286914;28;20494;-79
2021/03/25 07:49:26;;;;;;;7.13;5.15;;;9.60;73.10;;;;;;6280212;28;20469;-78
2021/03/25 07:52:30;;;;;;;9.00;6.05;;;9.90;71.40;;;;;;6278520;28;20503;-79
2021/03/25 07:55:31;;;;;;;6.97;5.38;;;10.20;69.50;;;;;;6279577;28;20049;-78
2021/03/25 07:58:39;;;;;;;6.50;5.72;;;10.70;68.20;;;;;;6277540;28;20044;-78
2021/03/25 08:01:47;;;;;;;6.78;5.30;;;11.00;66.90;;;;;;6272409;28;20481;-77
2021/03/25 08:04:48;;;;;;;7.13;5.65;;;11.30;64.30;;;;;;6272776;28;20132;-77
2021/03/25 08:07:53;;;;;;;6.05;5.18;;;11.50;63.70;;;;;;6272989;28;20434;-78
2021/03/25 08:11:10;;;;;;;10.32;6.07;;;11.70;62.40;;;;;;6271751;28;20087;-78
2021/03/25 08:14:15;;;;;;;7.97;5.63;;;11.70;61.40;;;;;;6272926;28;20089;-76
2021/03/25 08:17:26;;;;;;;8.95;5.50;;;12.00;60.80;;;;;;6273167;28;20071;-78
2021/03/25 08:20:38;;;;;;;8.52;5.88;;;12.10;66.10;;;;;;6274761;28;20064;-77
2021/03/25 08:24:06;;;;;;;6.57;4.63;;;12.20;62.30;;;;;;6276935;28;20498;-78
2021/03/25 08:27:17;;;;;;;8.00;5.85;;;12.10;59.90;;;;;;6277911;28;20053;-77
2021/03/25 08:30:33;;;;;;;7.13;6.22;;;12.10;60.60;;;;;;6273482;28;20250;-78
2021/03/25 08:33:56;;;;;;;7.18;5.60;;;12.30;59.40;;;;;;6279922;28;20118;-77
2021/03/25 08:37:11;;;;;;;7.53;5.30;;;12.40;58.80;;;;;;6277402;28;20075;-78
2021/03/25 08:40:19;;;;;;;9.27;6.03;;;12.60;58.80;;;;;;6274551;28;20094;-77
2021/03/25 08:43:27;;;;;;;9.75;6.10;;;13.00;58.20;;;;;;6275466;28;20072;-78
2021/03/25 08:46:33;;;;;;;10.32;7.05;;;13.30;57.20;;;;;;6274153;28;20081;-78
2021/03/25 08:49:40;;;;;;;5.70;4.78;;;13.50;56.80;;;;;;6278543;28;20073;-80
2021/03/25 08:52:44;;;;;;;6.72;5.88;;;13.80;55.70;;;;;;6276352;28;20142;-79
2021/03/25 08:55:46;;;;;;;7.57;4.55;;;14.00;54.40;;;;;;6277458;28;20069;-78
2021/03/25 08:58:49;;;;;;;18.10;5.35;;;14.10;53.80;;;;;;6278148;28;20494;-79
2021/03/25 09:01:55;;;;;;;6.13;5.30;;;14.30;52.90;;;;;;6279772;28;20041;-79
2021/03/25 09:05:06;;;;;;;7.50;5.38;;;14.30;52.70;;;;;;6286154;28;20532;-79
2021/03/25 09:08:13;;;;;;;5.90;4.97;;;14.40;53.20;;;;;;6296057;28;20056;-78
2021/03/25 09:11:17;;;;;;;5.82;4.75;;;14.70;54.60;;;;;;6280259;28;20491;-78
2021/03/25 09:14:21;;;;;;;8.05;5.47;;;15.10;51.70;;;;;;6276239;28;20132;-78
2021/03/25 09:17:26;;;;;;;5.72;4.80;;;15.30;50.00;;;;;;6274941;28;20072;-77
2021/03/25 09:20:31;;;;;;;7.20;4.43;;;15.30;50.10;;;;;;6275076;28;20168;-78
2021/03/25 09:23:46;;;;;;;6.97;5.22;;;15.30;50.20;;;;;;6278678;28;20087;-77
2021/03/25 09:26:55;;;;;;;6.43;4.80;;;15.40;49.90;;;;;;6285948;28;20056;-78
2021/03/25 09:30:29;;;;;;;4.35;3.95;;;15.50;49.10;;;;;;6282862;28;20068;-78
2021/03/25 09:33:47;;;;;;;6.28;4.80;;;15.70;49.00;;;;;;6279102;28;20056;-78
2021/03/25 09:36:52;;;;;;;9.10;4.97;;;16.00;48.50;;;;;;6279617;28;20566;-78
2021/03/25 09:40:28;;;;;;;9.23;5.30;;;16.30;46.80;;;;;;6278125;28;20383;-79
2021/03/25 09:43:40;;;;;;;7.00;4.95;;;16.30;47.00;;;;;;6281311;28;20044;-77
2021/03/25 09:46:43;;;;;;;11.30;6.40;;;16.50;46.30;;;;;;6282108;28;20152;-78
2021/03/25 09:49:47;;;;;;;10.43;6.60;;;16.50;45.50;;;;;;6280402;28;20137;-78
2021/03/25 09:53:11;;;;;;;11.77;5.63;;;16.60;45.60;;;;;;6279544;28;20499;-79
2021/03/25 09:56:30;;;;;;;11.40;8.38;;;16.80;45.90;;;;;;6279472;28;20041;-77
2021/03/25 09:59:49;;;;;;;12.65;7.28;;;17.00;45.10;;;;;;6280197;28;20056;-78
2021/03/25 10:02:56;;;;;;;14.35;8.43;;;16.90;45.40;;;;;;6278244;23;20052;-76
2021/03/25 10:05:57;;;;;;;15.82;8.68;;;17.00;44.70;;;;;;6249466;28;20065;-76
2021/03/25 10:08:59;;;;;;;12.50;8.32;;;17.10;45.90;;;;;;6248667;28;20523;-76
2021/03/25 10:12:01;;;;;;;17.75;8.95;;;17.40;45.10;;;;;;6262108;28;20132;-76
2021/03/25 10:15:52;;;;;;;14.98;8.07;;;17.50;45.00;;;;;;6273561;28;20132;-76
2021/03/25 10:18:59;;;;;;;14.63;9.02;;;17.60;44.90;;;;;;6274161;28;20081;-76
2021/03/25 10:22:04;;;;;;;18.73;11.82;;;17.70;44.50;;;;;;6273577;28;20053;-77
2021/03/25 10:25:08;;;;;;;18.48;10.70;;;17.80;44.20;;;;;;6273717;28;20037;-76
2021/03/25 10:28:14;;;;;;;17.67;11.75;;;17.90;44.20;;;;;;6273538;28;20048;-76
2021/03/25 10:31:19;;;;;;;20.33;13.55;;;18.10;43.60;;;;;;6273205;28;20133;-77
2021/03/25 10:34:25;;;;;;;20.20;11.85;;;18.40;43.50;;;;;;6269022;28;20053;-77
2021/03/25 10:37:32;;;;;;;20.73;12.60;;;18.50;44.00;;;;;;6267114;28;20067;-77
2021/03/25 10:40:36;;;;;;;19.33;12.25;;;18.40;43.10;;;;;;6271529;28;20457;-76
2021/03/25 10:43:38;;;;;;;19.80;11.73;;;18.30;43.80;;;;;;6247343;28;20129;-76
2021/03/25 10:46:39;;;;;;;20.20;11.55;;;18.30;44.10;;;;;;6247605;28;20483;-77
2021/03/25 10:49:44;;;;;;;22.35;11.70;;;18.50;43.80;;;;;;6246967;28;20088;-77
2021/03/25 10:52:46;;;;;;;19.83;13.18;;;18.60;43.20;;;;;;6247298;28;20502;-77
2021/03/25 10:55:51;;;;;;;15.75;10.13;;;18.60;43.10;;;;;;6247037;28;20072;-77
2021/03/25 10:59:01;;;;;;;14.65;10.38;;;18.50;43.80;;;;;;6247335;28;20053;-77
2021/03/25 11:02:03;;;;;;;21.30;10.68;;;18.50;44.00;;;;;;6247757;28;20171;-77
2021/03/25 11:05:08;;;;;;;17.88;11.05;;;18.60;43.20;;;;;;6246910;28;20503;-77
2021/03/25 11:08:30;;;;;;;22.30;11.40;;;18.70;43.10;;;;;;6246233;28;20049;-77
2021/03/25 11:11:36;;;;;;;20.30;10.82;;;18.80;42.70;;;;;;6246765;28;20052;-77
2021/03/25 11:14:46;;;;;;;16.98;10.23;;;19.00;42.90;;;;;;6267092;28;20044;-77
2021/03/25 11:17:48;;;;;;;14.52;9.77;;;19.10;42.80;;;;;;6271196;28;20049;-77
2021/03/25 11:20:50;;;;;;;16.88;11.57;;;19.10;42.90;;;;;;6270992;28;20183;-77
2021/03/25 11:23:59;;;;;;;18.55;11.05;;;19.20;42.10;;;;;;6271227;28;20114;-77
2021/03/25 11:27:04;;;;;;;14.77;10.02;;;19.20;41.70;;;;;;6271205;28;20557;-77
2021/03/25 11:30:22;;;;;;;13.75;9.18;;;19.30;41.50;;;;;;6271327;28;20126;-77
2021/03/25 11:33:32;;;;;;;20.77;9.80;;;19.20;41.90;;;;;;6270890;28;20167;-77
2021/03/25 11:36:41;;;;;;;20.00;11.20;;;19.10;42.70;;;;;;6267206;28;20050;-77
2021/03/25 11:39:58;;;;;;;16.65;10.10;;;19.10;41.70;;;;;;6269628;28;20637;-77
2021/03/25 11:43:08;;;;;;;15.82;10.68;;;19.00;42.70;;;;;;6270714;28;20184;-77
2021/03/25 11:46:11;;;;;;;25.75;12.52;;;19.00;42.70;;;;;;6271318;28;20080;-77
2021/03/25 11:49:15;;;;;;;18.13;11.35;;;19.10;42.00;;;;;;6269466;28;20128;-77
2021/03/25 11:52:17;;;;;;;17.15;11.25;;;19.20;42.20;;;;;;6270591;28;20123;-77
2021/03/25 11:55:22;;;;;;;15.68;11.00;;;19.20;41.90;;;;;;6270386;28;20404;-77
2021/03/25 11:58:25;;;;;;;16.33;11.52;;;19.10;42.30;;;;;;6270822;28;20395;-77
2021/03/25 12:01:29;;;;;;;18.15;11.45;;;19.20;41.80;;;;;;6270365;28;20040;-77
2021/03/25 12:04:31;;;;;;;15.63;11.55;;;19.10;42.70;;;;;;6270382;28;20128;-77
2021/03/25 12:07:32;;;;;;;21.30;12.52;;;19.10;42.90;;;;;;6270034;28;20048;-77
2021/03/25 12:10:34;;;;;;;22.45;12.80;;;19.00;42.50;;;;;;6270558;28;20080;-77
2021/03/25 12:13:37;;;;;;;22.20;12.90;;;18.90;43.30;;;;;;6270198;28;20128;-77
2021/03/25 12:16:39;;;;;;;19.02;11.55;;;18.90;43.80;;;;;;6270517;28;20041;-77
2021/03/25 12:19:40;;;;;;;21.25;11.88;;;18.90;44.00;;;;;;6271006;28;20132;-77
2021/03/25 12:22:42;;;;;;;20.88;14.88;;;19.10;44.00;;;;;;6271520;28;20522;-77
2021/03/25 12:25:43;;;;;;;17.63;12.35;;;19.50;43.40;;;;;;6270291;28;20571;-77
2021/03/25 12:28:45;;;;;;;16.38;12.43;;;19.70;42.90;;;;;;6270144;28;20095;-77
2021/03/25 12:31:47;;;;;;;21.88;14.07;;;19.80;43.30;;;;;;6270310;28;20492;-77
2021/03/25 12:34:48;;;;;;;16.90;11.50;;;20.10;42.60;;;;;;6270718;28;20140;-77
2021/03/25 12:37:50;;;;;;;19.17;13.63;;;20.20;42.20;;;;;;6266036;28;20132;-77
2021/03/25 12:40:52;;;;;;;18.42;13.38;;;20.20;41.80;;;;;;6266667;28;20414;-77
2021/03/25 12:43:54;;;;;;;23.30;14.48;;;20.00;41.90;;;;;;6269718;28;20072;-77
2021/03/25 12:46:55;;;;;;;18.10;13.60;;;19.90;42.60;;;;;;6269975;28;20188;-77
2021/03/25 12:49:57;;;;;;;18.05;11.50;;;19.80;42.20;;;;;;6270595;28;20377;-77
2021/03/25 12:52:58;;;;;;;22.05;12.35;;;19.70;42.70;;;;;;6269920;28;20068;-77
2021/03/25 12:56:01;;;;;;;16.40;11.20;;;19.70;42.00;;;;;;6269724;28;20399;-77
2021/03/25 12:59:10;;;;;;;12.90;9.77;;;19.80;41.30;;;;;;6270892;28;20510;-77
2021/03/25 13:02:12;;;;;;;18.05;11.88;;;19.80;40.70;;;;;;6275905;28;20049;-76
2021/03/25 13:05:14;;;;;;;14.55;10.50;;;19.90;41.40;;;;;;6274515;28;20124;-77
2021/03/25 13:08:16;;;;;;;18.60;12.45;;;19.80;41.70;;;;;;6274731;28;20045;-76
2021/03/25 13:11:21;;;;;;;15.98;9.75;;;20.10;40.50;;;;;;6274160;28;20519;-77
2021/03/25 13:14:23;;;;;;;14.57;8.90;;;;;;;;;;6274802;28;20452;-76
2021/03/25 13:17:25;;;;;;;17.42;11.30;;;20.20;40.10;;;;;;6274160;28;20491;-77
2021/03/25 13:20:26;;;;;;;15.95;10.60;;;20.10;40.80;;;;;;6274235;28;20101;-77
2021/03/25 13:23:28;;;;;;;16.50;10.32;;;20.10;40.60;;;;;;6274244;28;20129;-76
2021/03/25 13:26:29;;;;;;;15.57;9.90;;;20.10;40.90;;;;;;6274852;28;20136;-77
2021/03/25 13:29:31;;;;;;;15.70;10.82;;;20.10;40.70;;;;;;6273613;28;20122;-77
2021/03/25 13:32:33;;;;;;;18.15;9.85;;;20.00;40.50;;;;;;6274174;28;20073;-77
2021/03/25 13:35:36;;;;;;;13.23;9.57;;;20.00;40.80;;;;;;6274270;28;20064;-78
2021/03/25 13:38:37;;;;;;;13.35;9.27;;;20.00;41.60;;;;;;6275435;28;20049;-78
2021/03/25 13:41:38;;;;;;;14.68;8.93;;;20.20;41.30;;;;;;6272862;28;20131;-77
2021/03/25 13:44:41;;;;;;;15.93;9.88;;;20.40;41.00;;;;;;6273978;28;20131;-77
2021/03/25 13:47:42;;;;;;;13.07;8.82;;;20.40;40.70;;;;;;6273808;28;20048;-77
2021/03/25 13:50:44;;;;;;;15.60;9.73;;;20.40;40.20;;;;;;6273581;28;20699;-78
2021/03/25 13:53:45;;;;;;;10.60;6.95;;;20.40;39.70;;;;;;6273510;28;20132;-77
2021/03/25 13:56:46;;;;;;;11.70;8.82;;;20.40;40.00;;;;;;6273197;28;20136;-77
2021/03/25 13:59:48;;;;;;;18.08;7.82;;;20.30;39.90;;;;;;6273342;28;20068;-78
2021/03/25 14:02:50;;;;;;;17.02;8.55;;;20.20;40.50;;;;;;6273584;28;20131;-77
2021/03/25 14:05:52;;;;;;;17.60;9.88;;;20.00;39.90;;;;;;6273052;28;20071;-77
2021/03/25 14:08:53;;;;;;;13.88;9.25;;;19.80;40.70;;;;;;6272888;28;20084;-77
2021/03/25 14:11:55;;;;;;;14.77;9.25;;;19.70;40.80;;;;;;6272287;28;20136;-77
2021/03/25 14:14:57;;;;;;;13.40;8.50;;;19.80;41.10;;;;;;6272642;28;20128;-78
2021/03/25 14:17:58;;;;;;;20.90;9.23;;;19.90;40.20;;;;;;6273665;28;20084;-77
2021/03/25 14:21:00;;;;;;;15.63;9.40;;;20.00;40.00;;;;;;6272521;28;20061;-77
2021/03/25 14:24:01;;;;;;;11.35;8.50;;;20.10;40.10;;;;;;6272946;28;20129;-77
2021/03/25 14:27:03;;;;;;;11.45;9.10;;;20.20;40.00;;;;;;6272657;28;20127;-77
2021/03/25 14:30:07;;;;;;;14.30;8.07;;;20.20;39.90;;;;;;6273144;28;20132;-77
2021/03/25 14:33:09;;;;;;;11.52;9.77;;;20.20;40.60;;;;;;6272100;28;20138;-79
2021/03/25 14:36:14;;;;;;;12.90;8.43;;;20.30;39.90;;;;;;6272361;28;20048;-77
2021/03/25 14:39:15;;;;;;;51.42;32.17;;;20.30;40.20;;;;;;6271938;28;20065;-77
2021/03/25 14:42:16;;;;;;;14.93;10.18;;;20.30;40.10;;;;;;6272802;28;20149;-77
2021/03/25 14:45:22;;;;;;;27.27;17.55;;;20.30;40.00;;;;;;6272326;28;20048;-77
2021/03/25 14:48:25;;;;;;;29.27;18.00;;;20.10;40.30;;;;;;6272172;28;20068;-77
2021/03/25 14:51:26;;;;;;;19.67;14.45;;;19.90;41.40;;;;;;6272095;28;20124;-78
2021/03/25 14:54:27;;;;;;;15.70;10.95;;;19.50;42.00;;;;;;6272825;28;20048;-77
2021/03/25 14:57:29;;;;;;;21.02;16.90;;;19.20;42.90;;;;;;6271789;28;20072;-76
2021/03/25 15:00:39;;;;;;;71.15;55.63;;;18.90;43.60;;;;;;6271370;28;20048;-77
2021/03/25 15:03:41;;;;;;;68.28;59.60;;;18.60;44.10;;;;;;6261664;28;20612;-77
2021/03/25 15:06:42;;;;;;;49.30;43.10;;;18.50;44.80;;;;;;6271754;28;20084;-77
2021/03/25 15:09:43;;;;;;;53.65;46.00;;;18.60;44.50;;;;;;6271483;28;20075;-77
2021/03/25 15:12:45;;;;;;;17.25;11.52;;;18.90;44.00;;;;;;6271591;28;20064;-77
2021/03/25 15:15:47;;;;;;;11.80;8.93;;;18.90;43.60;;;;;;6271502;28;20045;-78
2021/03/25 15:18:48;;;;;;;20.02;9.65;;;18.90;43.60;;;;;;6271715;28;20050;-77
2021/03/25 15:21:50;;;;;;;13.20;9.00;;;18.60;43.80;;;;;;6270906;28;20578;-78
2021/03/25 15:24:51;;;;;;;13.75;8.88;;;18.40;44.50;;;;;;6271672;28;20070;-77
2021/03/25 15:27:53;;;;;;;14.52;7.90;;;18.30;44.90;;;;;;6271333;28;20494;-77
2021/03/25 15:30:56;;;;;;;12.25;8.68;;;18.20;45.00;;;;;;6271325;28;20056;-78
2021/03/25 15:33:58;;;;;;;14.52;7.82;;;18.00;45.00;;;;;;6271129;28;20738;-77
2021/03/25 15:36:59;;;;;;;37.55;31.73;;;;;;;;;;6270912;28;20136;-77
2021/03/25 15:40:01;;;;;;;27.83;22.95;;;17.70;45.10;;;;;;6270084;28;20448;-77
2021/03/25 15:43:04;;;;;;;16.77;14.90;;;17.60;46.20;;;;;;6254701;28;20184;-77
2021/03/25 15:46:06;;;;;;;13.73;10.52;;;17.40;46.10;;;;;;6246461;28;20515;-77
2021/03/25 15:49:08;;;;;;;13.07;9.00;;;17.20;46.60;;;;;;6245769;28;20068;-77
2021/03/25 15:52:09;;;;;;;10.75;9.15;;;17.10;47.30;;;;;;6246061;28;20137;-78
2021/03/25 15:55:12;;;;;;;14.98;10.25;;;17.10;47.00;;;;;;6245853;28;20140;-78
2021/03/25 15:58:14;;;;;;;16.85;8.25;;;17.00;46.60;;;;;;6246731;28;20053;-78
2021/03/25 16:01:16;;;;;;;13.30;8.05;;;16.80;47.10;;;;;;6245535;28;20124;-77
2021/03/25 16:04:18;;;;;;;12.82;8.60;;;16.70;47.70;;;;;;6287619;23;20061;-79
2021/03/25 16:07:19;;;;;;;14.13;8.50;;;16.60;48.10;;;;;;6278176;28;20041;-80